createdAt,value
2022-10-18T00:01:31.790Z,21.10595703125
2022-10-18T00:11:31.715Z,20.703125
2022-10-18T00:21:31.725Z,20.703125
2022-10-18T00:31:31.547Z,20.703125
2022-10-18T00:41:31.494Z,21.10595703125
2022-10-18T00:51:31.404Z,21.20361328125
2022-10-18T01:01:31.411Z,20.99609375
2022-10-18T01:11:31.259Z,21.10595703125
2022-10-18T01:21:31.192Z,20.8984375
2022-10-18T01:31:31.138Z,20.8984375
2022-10-18T01:41:31.057Z,20.8984375
2022-10-18T01:51:30.986Z,21.49658203125
2022-10-18T02:01:30.939Z,21.39892578125
2022-10-18T02:11:30.850Z,20.703125
2022-10-18T02:21:30.802Z,19.39697265625
2022-10-18T02:31:30.715Z,17.8955078125
2022-10-18T02:41:30.608Z,17.10205078125
2022-10-18T02:51:30.573Z,16.89453125
2022-10-18T03:01:30.559Z,16.89453125
2022-10-18T03:11:30.436Z,16.50390625
2022-10-18T03:21:30.353Z,16.29638671875
2022-10-18T03:41:30.232Z,15.90576171875
2022-10-18T03:51:30.151Z,15.6982421875
2022-10-18T04:01:30.080Z,15.6005859375
2022-10-18T04:11:30.005Z,15.4052734375
2022-10-18T04:21:29.967Z,15.00244140625
2022-10-18T04:31:29.864Z,15.00244140625
2022-10-18T04:41:29.818Z,14.90478515625
2022-10-18T04:51:29.742Z,14.90478515625
2022-10-18T05:01:29.729Z,14.794921875
2022-10-18T05:11:29.571Z,14.501953125
2022-10-18T05:21:29.510Z,14.404296875
2022-10-18T05:31:29.447Z,14.29443359375
2022-10-18T05:41:29.400Z,14.29443359375
2022-10-18T05:51:29.292Z,14.09912109375
2022-10-18T06:01:29.245Z,14.00146484375
2022-10-18T06:11:29.177Z,13.90380859375
2022-10-18T06:21:29.070Z,13.6962890625
2022-10-18T06:31:29.019Z,13.5986328125
2022-10-18T06:41:28.946Z,13.5009765625
2022-10-18T06:51:28.966Z,13.4033203125
2022-10-18T07:01:28.877Z,13.4033203125
2022-10-18T07:11:28.860Z,13.3056640625
2022-10-18T07:21:28.663Z,13.3056640625
2022-10-18T07:31:28.611Z,13.3056640625
2022-10-18T07:41:28.632Z,13.19580078125
2022-10-18T07:51:28.462Z,13.09814453125
2022-10-18T08:01:28.474Z,13.19580078125
2022-10-18T08:11:28.438Z,13.09814453125
2022-10-18T08:21:28.268Z,13.09814453125
2022-10-18T08:31:28.168Z,13.19580078125
2022-10-18T08:41:28.110Z,13.19580078125
2022-10-18T08:51:28.044Z,13.19580078125
2022-10-18T09:01:28.094Z,13.09814453125
2022-10-18T09:11:27.905Z,13.00048828125
2022-10-18T09:21:27.833Z,13.00048828125
2022-10-18T09:31:27.870Z,12.6953125
2022-10-18T09:41:27.717Z,12.59765625
2022-10-18T09:51:27.609Z,12.5
2022-10-18T10:01:27.552Z,12.5
2022-10-18T10:11:28.062Z,12.298583984375
2022-10-18T10:21:27.404Z,12.298583984375
2022-10-18T10:31:27.352Z,11.99951171875
2022-10-18T10:41:27.296Z,11.90185546875
2022-10-18T10:51:27.212Z,11.700439453125
2022-10-18T11:01:27.132Z,11.700439453125
2022-10-18T11:11:27.068Z,11.798095703125
2022-10-18T11:21:27.001Z,11.798095703125
2022-10-18T11:31:26.941Z,11.700439453125
2022-10-18T11:41:26.854Z,11.700439453125
2022-10-18T11:51:34.190Z,11.798095703125
2022-10-18T12:01:28.620Z,11.99951171875
2022-10-18T12:11:26.687Z,11.798095703125
2022-10-18T12:21:26.642Z,11.700439453125
2022-10-18T12:31:26.504Z,11.700439453125
2022-10-18T12:41:26.480Z,11.4990234375
2022-10-18T12:51:26.358Z,11.199951171875
2022-10-18T13:01:26.449Z,10.90087890625
2022-10-18T13:11:26.225Z,10.797119140625
2022-10-18T13:21:26.147Z,10.90087890625
2022-10-18T13:31:26.092Z,10.99853515625
2022-10-18T13:41:26.830Z,10.99853515625
2022-10-18T13:51:25.973Z,11.102294921875
2022-10-18T14:01:25.996Z,11.297607421875
2022-10-18T14:11:25.829Z,11.297607421875
2022-10-18T14:21:30.995Z,11.4013671875
2022-10-18T14:31:25.705Z,11.4013671875
2022-10-18T14:41:25.712Z,11.4990234375
2022-10-18T14:51:25.558Z,11.602783203125
2022-10-18T15:01:25.672Z,11.700439453125
2022-10-18T15:11:25.431Z,11.4990234375
2022-10-18T15:21:25.351Z,11.4990234375
2022-10-18T15:31:25.286Z,11.4013671875
2022-10-18T15:41:25.203Z,11.102294921875
2022-10-18T15:51:25.128Z,10.797119140625
2022-10-18T16:01:25.117Z,10.601806640625
2022-10-18T16:11:25.010Z,10.601806640625
2022-10-18T16:21:24.952Z,10.699462890625
2022-10-18T16:31:24.853Z,10.699462890625
2022-10-18T16:41:24.806Z,10.699462890625
2022-10-18T16:51:24.734Z,10.699462890625
2022-10-18T17:01:24.737Z,10.400390625
2022-10-18T17:11:24.590Z,10.101318359375
2022-10-18T17:21:24.633Z,9.89990234375
2022-10-18T17:31:24.464Z,9.698486328125
2022-10-18T17:41:24.381Z,9.698486328125
2022-10-18T17:51:24.313Z,9.698486328125
2022-10-18T18:01:24.261Z,9.80224609375
2022-10-18T18:11:24.188Z,9.89990234375
2022-10-18T18:21:24.120Z,10.101318359375
2022-10-18T18:31:24.055Z,9.99755859375
2022-10-18T18:41:23.989Z,9.89990234375
2022-10-18T18:51:23.921Z,9.80224609375
2022-10-18T19:01:24.021Z,9.89990234375
2022-10-18T19:11:23.758Z,9.80224609375
2022-10-18T19:21:23.689Z,9.89990234375
2022-10-18T19:31:23.641Z,9.89990234375
2022-10-18T19:41:23.574Z,10.198974609375
2022-10-18T19:51:27.750Z,10.797119140625
2022-10-18T20:01:23.522Z,11.297607421875
2022-10-18T20:11:23.492Z,11.798095703125
2022-10-18T20:21:23.295Z,12.09716796875
2022-10-18T20:31:23.229Z,12.200927734375
2022-10-18T20:41:23.148Z,12.40234375
2022-10-18T20:51:23.088Z,12.6953125
2022-10-18T21:01:23.159Z,12.80517578125
2022-10-18T21:11:22.978Z,13.00048828125
2022-10-18T21:21:23.035Z,13.09814453125
2022-10-18T21:31:22.816Z,13.4033203125
2022-10-18T21:41:22.906Z,13.5009765625
2022-10-18T21:51:22.680Z,13.7939453125
2022-10-18T22:01:22.682Z,14.90478515625
2022-10-18T22:11:22.643Z,15.29541015625
2022-10-18T22:21:22.470Z,15.5029296875
2022-10-18T22:31:22.389Z,17.10205078125
2022-10-18T22:41:22.315Z,16.10107421875
2022-10-18T22:51:22.403Z,16.19873046875
2022-10-18T23:01:22.175Z,16.19873046875
2022-10-18T23:11:22.127Z,17.00439453125
2022-10-18T23:21:22.012Z,18.20068359375
2022-10-18T23:31:21.946Z,18.701171875
2022-10-18T23:41:21.888Z,18.896484375
2022-10-18T23:51:21.815Z,19.49462890625
